Time;durP1;ratioP1;P1;durP2;ratioP2;P2;SDS_P1;SDS_P2;PMS_P1;PMS_P2;Temp;Humidity;BMP_temperature;BMP_pressure;BME280_temperature;BME280_humidity;BME280_pressure;Samples;Min_cycle;Max_cycle;Signal;HPM_P1;HPM_P2
2023/09/18 00:01:08;;;;;;;15.73;6.90;;;;;;;;;;5090399;28;20310;-86
2023/09/18 00:03:39;;;;;;;15.88;6.07;;;;;;;;;;5091299;28;20048;-87
2023/09/18 00:06:15;;;;;;;12.52;5.97;;;;;;;;;;5092941;28;20040;-87
2023/09/18 00:08:51;;;;;;;12.65;6.40;;;;;;;;;;5105149;28;20044;-86
2023/09/18 00:11:23;;;;;;;15.35;7.18;;;;;;;;;;5092732;28;20048;-87
2023/09/18 00:13:54;;;;;;;18.23;7.20;;;;;;;;;;5093036;28;20044;-86
2023/09/18 00:16:27;;;;;;;18.67;7.20;;;;;;;;;;5092935;28;20051;-86
2023/09/18 00:19:08;;;;;;;15.57;6.35;;;;;;;;;;5077566;28;20048;-86
2023/09/18 00:24:39;;;;;;;13.90;6.22;;;;;;;;;;5071633;28;20048;-87
2023/09/18 00:27:15;;;;;;;15.80;6.57;;;;;;;;;;5073910;28;20048;-87
2023/09/18 00:29:48;;;;;;;14.45;6.50;;;;;;;;;;5088318;28;20044;-86
2023/09/18 00:32:20;;;;;;;14.93;6.97;;;;;;;;;;5089161;28;20449;-85
2023/09/18 00:34:51;;;;;;;15.10;6.95;;;;;;;;;;5071868;28;20056;-86
2023/09/18 00:37:22;;;;;;;15.18;5.93;;;;;;;;;;5089819;28;20157;-86
2023/09/18 00:39:53;;;;;;;15.13;7.38;;;;;;;;;;5091785;28;20378;-86
2023/09/18 00:42:28;;;;;;;17.02;6.28;;;;;;;;;;5089831;28;20051;-85
2023/09/18 00:44:59;;;;;;;17.23;6.72;;;;;;;;;;5092058;28;20044;-89
2023/09/18 00:47:32;;;;;;;13.57;6.47;;;;;;;;;;5094494;28;20036;-86
2023/09/18 00:50:08;;;;;;;12.73;5.88;;;;;;;;;;5095086;28;20040;-86
2023/09/18 00:52:42;;;;;;;17.73;6.53;;;;;;;;;;5096518;28;20051;-86
2023/09/18 00:55:18;;;;;;;18.20;6.78;;;;;;;;;;5101000;28;20044;-88
2023/09/18 00:57:49;;;;;;;16.13;7.10;;;;;;;;;;5075899;28;20055;-86
2023/09/18 01:00:22;;;;;;;16.67;5.97;;;;;;;;;;5093612;28;20055;-84
2023/09/18 01:03:00;;;;;;;19.80;6.45;;;;;;;;;;5090092;28;20063;-86
2023/09/18 01:05:36;;;;;;;14.40;6.43;;;;;;;;;;5090459;28;20044;-86
2023/09/18 01:08:09;;;;;;;14.25;6.85;;;;;;;;;;5090198;28;20040;-84
2023/09/18 01:11:14;;;;;;;17.52;7.00;;;;;;;;;;5090066;28;20508;-86
2023/09/18 01:14:08;;;;;;;14.00;6.93;;;;;;;;;;5087846;28;20107;-87
2023/09/18 01:16:56;;;;;;;16.95;7.00;;;;;;;;;;5074455;28;20051;-84
2023/09/18 01:19:46;;;;;;;15.80;6.93;;;;;;;;;;5090011;28;20032;-85
2023/09/18 01:22:22;;;;;;;14.30;7.10;;;;;;;;;;5089231;28;20063;-85
2023/09/18 01:24:56;;;;;;;14.65;7.13;;;;;;;;;;5091374;28;20429;-84
2023/09/18 01:27:28;;;;;;;17.42;7.97;;;;;;;;;;5090168;28;20044;-86
2023/09/18 01:30:00;;;;;;;14.63;6.32;;;;;;;;;;5088416;28;20051;-85
2023/09/18 01:32:37;;;;;;;17.50;7.20;;;;;;;;;;5089942;28;20047;-86
2023/09/18 01:35:12;;;;;;;14.80;7.18;;;;;;;;;;5098674;28;20051;-85
2023/09/18 01:37:43;;;;;;;14.90;7.13;;;;;;;;;;5091304;28;20044;-87
2023/09/18 01:40:15;;;;;;;16.85;6.47;;;;;;;;;;5089958;28;20040;-84
2023/09/18 01:42:48;;;;;;;17.35;7.65;;;;;;;;;;5092291;28;20398;-87
2023/09/18 01:45:22;;;;;;;13.32;6.28;;;;;;;;;;5091088;28;20048;-85
2023/09/18 01:47:53;;;;;;;19.45;7.18;;;;;;;;;;5090488;28;20048;-86
2023/09/18 01:50:25;;;;;;;13.98;6.35;;;;;;;;;;5095201;28;20036;-85
2023/09/18 01:53:02;;;;;;;18.77;6.95;;;;;;;;;;5093866;28;20036;-86
2023/09/18 01:55:35;;;;;;;17.55;7.70;;;;;;;;;;5094873;28;20397;-86
2023/09/18 01:58:09;;;;;;;15.85;7.22;;;;;;;;;;5093936;28;20050;-87
2023/09/18 02:00:41;;;;;;;14.00;6.30;;;;;;;;;;5078509;28;20040;-84
2023/09/18 02:03:14;;;;;;;16.13;6.18;;;;;;;;;;5074852;28;20059;-87
2023/09/18 02:06:12;;;;;;;12.63;6.70;;;;;;;;;;5092574;28;20052;-85
2023/09/18 02:08:48;;;;;;;12.23;6.47;;;;;;;;;;5094153;28;20040;-85
2023/09/18 02:11:19;;;;;;;13.30;6.45;;;;;;;;;;5091748;28;20489;-84
2023/09/18 02:13:53;;;;;;;15.55;7.13;;;;;;;;;;5093122;28;20410;-85
2023/09/18 02:16:27;;;;;;;15.93;6.57;;;;;;;;;;5093111;28;20044;-84
2023/09/18 02:18:58;;;;;;;14.05;6.95;;;;;;;;;;5090588;28;20066;-86
2023/09/18 02:21:29;;;;;;;12.82;6.38;;;;;;;;;;5092709;28;20052;-84
2023/09/18 02:24:25;;;;;;;13.00;6.43;;;;;;;;;;5091164;28;20044;-85
2023/09/18 02:26:59;;;;;;;14.02;6.60;;;;;;;;;;5090934;28;20048;-85
2023/09/18 02:29:31;;;;;;;14.48;6.45;;;;;;;;;;5092608;28;20044;-84
2023/09/18 02:32:02;;;;;;;14.43;6.38;;;;;;;;;;5094458;28;20075;-84
2023/09/18 02:34:33;;;;;;;15.43;7.03;;;;;;;;;;5089603;28;20047;-85
2023/09/18 02:37:05;;;;;;;13.27;6.32;;;;;;;;;;5092981;28;20039;-86
2023/09/18 02:39:35;;;;;;;16.52;6.72;;;;;;;;;;5090039;28;20062;-84
2023/09/18 02:42:07;;;;;;;14.82;5.95;;;;;;;;;;5094055;28;20048;-86
2023/09/18 02:44:39;;;;;;;14.57;6.15;;;;;;;;;;5091459;28;20032;-83
2023/09/18 02:47:12;;;;;;;17.92;7.07;;;;;;;;;;5093814;28;20110;-84
2023/09/18 02:49:43;;;;;;;13.55;6.68;;;;;;;;;;5091721;28;20055;-84
2023/09/18 02:52:15;;;;;;;14.02;6.13;;;;;;;;;;5075804;28;20051;-86
2023/09/18 02:54:48;;;;;;;15.52;7.13;;;;;;;;;;5092385;28;20048;-86
2023/09/18 02:57:21;;;;;;;13.63;6.85;;;;;;;;;;5091876;28;20098;-85
2023/09/18 02:59:53;;;;;;;13.77;6.63;;;;;;;;;;5092873;28;20060;-84
2023/09/18 03:02:24;;;;;;;14.43;7.07;;;;;;;;;;5092851;28;20060;-84
2023/09/18 03:04:56;;;;;;;14.35;7.18;;;;;;;;;;5092671;28;20048;-85
2023/09/18 03:07:30;;;;;;;13.20;7.10;;;;;;;;;;5092841;28;20047;-87
2023/09/18 03:10:04;;;;;;;18.60;7.10;;;;;;;;;;5076456;28;20082;-86
2023/09/18 03:12:38;;;;;;;13.95;6.85;;;;;;;;;;5109404;28;20051;-84
2023/09/18 03:15:11;;;;;;;16.83;7.55;;;;;;;;;;5113846;28;20047;-85
2023/09/18 03:17:44;;;;;;;16.60;7.78;;;;;;;;;;5113890;28;20055;-85
2023/09/18 03:20:15;;;;;;;14.38;7.53;;;;;;;;;;5102584;28;20055;-84
2023/09/18 03:22:45;;;;;;;17.63;7.03;;;;;;;;;;5110323;28;20048;-88
2023/09/18 03:25:17;;;;;;;20.00;7.47;;;;;;;;;;5076802;28;20088;-88
2023/09/18 03:27:53;;;;;;;16.02;7.07;;;;;;;;;;5077084;28;20051;-85
2023/09/18 03:30:28;;;;;;;16.95;6.75;;;;;;;;;;5077474;28;20060;-86
2023/09/18 03:32:59;;;;;;;14.63;6.68;;;;;;;;;;5092860;28;20059;-88
2023/09/18 03:35:45;;;;;;;14.70;7.05;;;;;;;;;;5093309;28;20056;-87
2023/09/18 03:38:24;;;;;;;16.05;6.82;;;;;;;;;;5092524;28;20505;-86
2023/09/18 03:40:55;;;;;;;14.82;6.70;;;;;;;;;;5092680;28;20048;-86
2023/09/18 03:43:26;;;;;;;12.35;6.53;;;;;;;;;;5092694;28;20040;-87
2023/09/18 03:46:06;;;;;;;15.40;6.45;;;;;;;;;;5094428;28;20047;-84
2023/09/18 03:48:46;;;;;;;18.73;6.68;;;;;;;;;;5092706;28;20052;-86
2023/09/18 03:51:18;;;;;;;14.95;6.55;;;;;;;;;;5076808;28;20051;-84
2023/09/18 03:53:48;;;;;;;;;;;;;;;;;;5093191;28;20055;-85
2023/09/18 03:56:19;;;;;;;14.68;6.13;;;;;;;;;;5092771;28;19920;-87
2023/09/18 03:58:53;;;;;;;15.75;7.15;;;;;;;;;;5092154;28;20500;-86
2023/09/18 04:01:23;;;;;;;18.42;6.43;;;;;;;;;;5092965;28;20048;-86
2023/09/18 04:03:55;;;;;;;14.63;7.18;;;;;;;;;;5092594;28;20063;-85
2023/09/18 04:06:37;;;;;;;14.48;6.72;;;;;;;;;;5092133;28;20411;-84
2023/09/18 04:09:09;;;;;;;18.05;6.93;;;;;;;;;;5076288;28;20052;-84
2023/09/18 04:11:43;;;;;;;15.27;7.68;;;;;;;;;;5091558;28;20048;-82
2023/09/18 04:14:15;;;;;;;19.27;7.85;;;;;;;;;;5094059;28;20381;-85
2023/09/18 04:16:45;;;;;;;15.85;6.20;;;;;;;;;;5091957;28;20501;-85
2023/09/18 04:19:15;;;;;;;18.33;6.65;;;;;;;;;;5091847;28;20048;-85
2023/09/18 04:21:46;;;;;;;14.95;6.20;;;;;;;;;;5076120;28;20052;-84
2023/09/18 04:24:17;;;;;;;14.43;6.82;;;;;;;;;;5075913;28;20048;-85
2023/09/18 04:26:52;;;;;;;14.15;6.80;;;;;;;;;;5076310;28;20051;-84
2023/09/18 04:29:23;;;;;;;17.00;6.68;;;;;;;;;;5091682;28;20051;-87
2023/09/18 04:31:54;;;;;;;15.02;6.43;;;;;;;;;;5075757;28;20060;-84
2023/09/18 04:34:26;;;;;;;16.10;6.57;;;;;;;;;;5092202;28;20052;-85
2023/09/18 04:36:57;;;;;;;13.57;6.13;;;;;;;;;;5093727;28;20043;-84
2023/09/18 04:39:29;;;;;;;12.80;5.97;;;;;;;;;;5091563;28;20047;-86
2023/09/18 04:42:04;;;;;;;15.20;6.50;;;;;;;;;;5093557;28;20055;-84
2023/09/18 04:44:35;;;;;;;18.08;6.20;;;;;;;;;;5091479;28;20071;-85
2023/09/18 04:47:06;;;;;;;16.65;6.68;;;;;;;;;;5075440;28;20059;-87
2023/09/18 04:49:40;;;;;;;18.33;7.32;;;;;;;;;;5093232;28;20482;-87
2023/09/18 04:52:13;;;;;;;14.10;6.78;;;;;;;;;;5091087;28;20048;-86
2023/09/18 04:54:44;;;;;;;18.98;7.45;;;;;;;;;;5074392;28;20048;-85
2023/09/18 04:57:16;;;;;;;14.40;6.63;;;;;;;;;;5091789;28;20052;-84
2023/09/18 04:59:49;;;;;;;16.17;8.02;;;;;;;;;;5092361;28;20044;-83
2023/09/18 05:02:41;;;;;;;16.60;7.15;;;;;;;;;;5091573;28;20044;-82
2023/09/18 05:05:13;;;;;;;15.88;6.85;;;;;;;;;;5091031;28;20154;-85
2023/09/18 05:07:45;;;;;;;15.75;7.32;;;;;;;;;;5091641;28;20056;-84
2023/09/18 05:10:16;;;;;;;18.20;7.07;;;;;;;;;;5091772;28;20048;-83
2023/09/18 05:12:50;;;;;;;15.35;7.00;;;;;;;;;;5091763;28;20040;-85
2023/09/18 05:15:25;;;;;;;22.88;7.18;;;;;;;;;;5091545;28;20059;-85
2023/09/18 05:17:58;;;;;;;17.02;7.82;;;;;;;;;;5093181;28;20044;-85
2023/09/18 05:20:31;;;;;;;16.65;7.22;;;;;;;;;;5075885;28;20044;-86
2023/09/18 05:23:05;;;;;;;14.05;7.18;;;;;;;;;;5092783;28;20151;-87
2023/09/18 05:25:41;;;;;;;20.15;6.72;;;;;;;;;;5096386;28;20147;-86
2023/09/18 05:28:13;;;;;;;26.08;7.72;;;;;;;;;;5096077;28;20055;-87
2023/09/18 05:30:43;;;;;;;14.70;6.95;;;;;;;;;;5078964;28;20048;-88
2023/09/18 05:33:17;;;;;;;15.88;7.80;;;;;;;;;;5097589;28;20051;-87
2023/09/18 05:35:49;;;;;;;14.38;7.05;;;;;;;;;;5097122;28;20055;-86
2023/09/18 05:38:20;;;;;;;15.90;7.93;;;;;;;;;;5096241;28;20052;-90
2023/09/18 05:40:56;;;;;;;14.82;6.78;;;;;;;;;;5096296;28;20044;-85
2023/09/18 05:43:28;;;;;;;16.30;7.45;;;;;;;;;;5095589;28;20060;-84
2023/09/18 05:45:58;;;;;;;17.90;7.32;;;;;;;;;;5078323;28;20409;-85
2023/09/18 05:48:29;;;;;;;16.92;6.78;;;;;;;;;;5094591;28;20052;-87
2023/09/18 05:51:00;;;;;;;16.42;7.07;;;;;;;;;;5078066;28;20055;-85
2023/09/18 05:53:34;;;;;;;20.83;7.00;;;;;;;;;;5096610;28;20036;-86
2023/09/18 05:56:05;;;;;;;14.73;6.13;;;;;;;;;;5094637;28;20044;-85
2023/09/18 05:58:37;;;;;;;13.00;7.00;;;;;;;;;;5096360;28;20044;-85
2023/09/18 06:01:10;;;;;;;12.20;6.45;;;;;;;;;;5094337;28;20055;-84
2023/09/18 06:03:45;;;;;;;17.65;6.65;;;;;;;;;;5096290;28;20055;-87
2023/09/18 06:06:15;;;;;;;12.48;6.30;;;;;;;;;;5095538;28;20379;-86
2023/09/18 06:08:49;;;;;;;13.50;6.65;;;;;;;;;;5095038;28;20051;-86
2023/09/18 06:11:23;;;;;;;12.43;6.55;;;;;;;;;;5095630;28;20048;-85
2023/09/18 06:13:55;;;;;;;15.50;6.78;;;;;;;;;;5095036;28;20048;-81
2023/09/18 06:16:26;;;;;;;;;;;;;;;;;;5096809;28;20063;-84
2023/09/18 06:18:57;;;;;;;13.32;6.22;;;;;;;;;;5095776;28;19920;-84
2023/09/18 06:21:28;;;;;;;14.25;6.03;;;;;;;;;;5096295;28;20410;-82
2023/09/18 06:24:02;;;;;;;18.65;5.90;;;;;;;;;;5094450;28;20052;-83
2023/09/18 06:26:33;;;;;;;12.27;5.57;;;;;;;;;;5094842;28;20367;-82
2023/09/18 06:29:12;;;;;;;10.70;4.75;;;;;;;;;;5096343;28;20040;-84
2023/09/18 06:31:45;;;;;;;8.80;4.20;;;;;;;;;;5093917;28;20495;-85
2023/09/18 06:34:16;;;;;;;11.48;5.00;;;;;;;;;;5095720;28;20040;-84
2023/09/18 06:36:52;;;;;;;10.63;5.15;;;;;;;;;;5093633;28;20048;-84
2023/09/18 06:39:24;;;;;;;11.05;5.53;;;;;;;;;;5093778;28;20048;-85
2023/09/18 06:42:01;;;;;;;11.55;5.25;;;;;;;;;;5094565;28;20051;-85
2023/09/18 06:44:32;;;;;;;13.20;5.60;;;;;;;;;;5095100;28;20044;-86
2023/09/18 06:47:08;;;;;;;13.25;5.85;;;;;;;;;;5093522;28;20082;-83
2023/09/18 06:49:43;;;;;;;10.55;6.28;;;;;;;;;;5095330;28;20044;-85
2023/09/18 06:52:13;;;;;;;11.55;5.70;;;;;;;;;;5095984;28;20037;-84
2023/09/18 06:54:52;;;;;;;13.45;5.35;;;;;;;;;;5094681;28;20466;-84
2023/09/18 06:57:22;;;;;;;9.80;5.05;;;;;;;;;;5094060;28;20494;-84
2023/09/18 06:59:52;;;;;;;12.52;5.18;;;;;;;;;;5077457;28;20075;-86
2023/09/18 07:02:23;;;;;;;13.80;5.85;;;;;;;;;;5095641;28;20074;-86
2023/09/18 07:04:53;;;;;;;9.57;4.63;;;;;;;;;;5093232;28;20454;-86
2023/09/18 07:07:28;;;;;;;11.88;4.50;;;;;;;;;;5093876;28;20398;-86
2023/09/18 07:09:59;;;;;;;;;;;;;;;;;;5093704;28;20044;-85
2023/09/18 07:12:33;;;;;;;10.95;5.20;;;;;;;;;;5095231;28;19927;-84
2023/09/18 07:15:04;;;;;;;9.50;5.13;;;;;;;;;;5094875;28;20048;-83
2023/09/18 07:17:37;;;;;;;11.52;5.43;;;;;;;;;;5094158;28;20048;-84
2023/09/18 07:20:13;;;;;;;10.15;4.68;;;;;;;;;;5094626;28;20386;-84
2023/09/18 07:22:48;;;;;;;12.20;5.43;;;;;;;;;;5093427;28;20051;-84
2023/09/18 07:25:24;;;;;;;11.27;5.72;;;;;;;;;;5095228;28;20389;-84
2023/09/18 07:27:56;;;;;;;11.32;5.35;;;;;;;;;;5093513;28;20056;-83
2023/09/18 07:30:27;;;;;;;10.52;5.13;;;;;;;;;;5094685;28;20478;-83
2023/09/18 07:32:58;;;;;;;15.60;5.43;;;;;;;;;;5094703;28;20055;-84
2023/09/18 07:35:32;;;;;;;9.93;4.95;;;;;;;;;;5094396;28;20044;-83
2023/09/18 07:38:06;;;;;;;11.23;4.97;;;;;;;;;;5094830;28;20055;-83
2023/09/18 07:40:39;;;;;;;10.32;5.78;;;;;;;;;;5094254;28;20044;-84
2023/09/18 07:43:09;;;;;;;10.20;5.13;;;;;;;;;;5093743;28;20048;-83
2023/09/18 07:45:40;;;;;;;11.90;5.18;;;;;;;;;;5094245;28;20051;-84
2023/09/18 07:48:12;;;;;;;11.90;5.13;;;;;;;;;;5092200;28;20485;-85
2023/09/18 07:50:44;;;;;;;13.68;5.57;;;;;;;;;;5094420;28;20040;-84
2023/09/18 07:53:20;;;;;;;10.38;4.85;;;;;;;;;;5094141;28;20044;-86
2023/09/18 07:55:59;;;;;;;10.15;5.32;;;;;;;;;;5092996;28;20044;-83
2023/09/18 07:58:38;;;;;;;13.20;5.32;;;;;;;;;;5093579;28;20382;-83
2023/09/18 08:01:10;;;;;;;11.35;4.55;;;;;;;;;;5093877;28;20048;-84
2023/09/18 08:03:42;;;;;;;10.68;4.63;;;;;;;;;;5093806;28;20355;-83
2023/09/18 08:06:15;;;;;;;10.55;4.95;;;;;;;;;;5092919;28;20048;-83
2023/09/18 08:08:50;;;;;;;10.02;4.45;;;;;;;;;;5092858;28;20525;-83
2023/09/18 08:11:20;;;;;;;11.02;5.10;;;;;;;;;;5094139;28;20382;-84
2023/09/18 08:13:52;;;;;;;12.30;5.35;;;;;;;;;;5075931;28;20359;-84
2023/09/18 08:16:24;;;;;;;11.13;5.13;;;;;;;;;;5092405;28;20040;-85
2023/09/18 08:18:56;;;;;;;9.82;5.05;;;;;;;;;;5093880;28;20047;-84
2023/09/18 08:21:30;;;;;;;14.57;5.32;;;;;;;;;;5092417;28;20040;-83
2023/09/18 08:24:00;;;;;;;10.10;5.28;;;;;;;;;;5092365;28;20509;-83
2023/09/18 08:26:33;;;;;;;11.05;5.40;;;;;;;;;;5092472;28;20394;-84
2023/09/18 08:29:07;;;;;;;11.02;6.30;;;;;;;;;;5093856;28;20469;-82
2023/09/18 08:31:39;;;;;;;12.10;5.05;;;;;;;;;;5092264;28;20044;-82
2023/09/18 08:34:11;;;;;;;10.82;5.32;;;;;;;;;;5093548;28;20108;-84
2023/09/18 08:36:48;;;;;;;8.25;4.45;;;;;;;;;;5093671;28;20048;-83
2023/09/18 08:39:20;;;;;;;9.63;4.97;;;;;;;;;;5093181;28;20047;-82
2023/09/18 08:41:56;;;;;;;11.15;4.82;;;;;;;;;;5092083;28;20048;-82
2023/09/18 08:44:28;;;;;;;9.23;5.03;;;;;;;;;;5093375;28;20052;-83
2023/09/18 08:47:05;;;;;;;9.18;5.32;;;;;;;;;;5093095;28;20044;-82
2023/09/18 08:49:38;;;;;;;11.18;5.18;;;;;;;;;;5093124;28;20040;-82
2023/09/18 08:52:14;;;;;;;11.52;5.63;;;;;;;;;;5093653;28;20047;-83
2023/09/18 08:54:46;;;;;;;14.02;5.13;;;;;;;;;;5093714;28;20043;-83
2023/09/18 08:57:19;;;;;;;13.23;5.57;;;;;;;;;;5091398;28;20048;-84
2023/09/18 08:59:51;;;;;;;;;;;;;;;;;;5093249;28;20055;-83
2023/09/18 09:02:22;;;;;;;12.10;5.57;;;;;;;;;;5093345;28;20289;-83
2023/09/18 09:04:54;;;;;;;13.25;6.10;;;;;;;;;;5103316;28;20080;-83
2023/09/18 09:07:28;;;;;;;13.52;5.93;;;;;;;;;;5093955;28;20047;-85
2023/09/18 09:09:59;;;;;;;11.35;5.65;;;;;;;;;;5104910;28;20040;-85
2023/09/18 09:12:58;;;;;;;8.88;5.28;;;;;;;;;;5104640;28;20048;-83
2023/09/18 09:15:45;;;;;;;11.80;5.28;;;;;;;;;;5077901;28;20036;-84
2023/09/18 09:18:18;;;;;;;12.30;5.18;;;;;;;;;;5111345;28;20501;-83
2023/09/18 09:21:09;;;;;;;10.50;5.30;;;;;;;;;;5111348;28;20048;-85
2023/09/18 09:23:55;;;;;;;10.20;5.13;;;;;;;;;;5112947;28;20040;-81
2023/09/18 09:26:26;;;;;;;16.35;6.32;;;;;;;;;;5113215;28;20039;-83
2023/09/18 09:28:56;;;;;;;17.75;5.50;;;;;;;;;;5112328;28;20401;-82
2023/09/18 09:31:31;;;;;;;12.98;5.68;;;;;;;;;;5114017;28;20039;-83
2023/09/18 09:34:05;;;;;;;12.00;5.43;;;;;;;;;;5114174;28;20044;-83
2023/09/18 09:36:54;;;;;;;9.68;5.13;;;;;;;;;;5113824;28;20047;-83
2023/09/18 09:39:26;;;;;;;16.67;5.40;;;;;;;;;;5114767;28;20047;-83
2023/09/18 09:42:03;;;;;;;11.27;5.90;;;;;;;;;;5114383;28;20054;-82
2023/09/18 09:44:34;;;;;;;11.07;5.22;;;;;;;;;;5114521;28;20151;-85
2023/09/18 09:47:06;;;;;;;12.20;5.47;;;;;;;;;;5114022;28;20043;-84
2023/09/18 09:49:47;;;;;;;11.18;4.80;;;;;;;;;;5113106;28;20054;-83
2023/09/18 09:52:22;;;;;;;13.48;5.45;;;;;;;;;;5113881;28;20146;-83
2023/09/18 09:54:53;;;;;;;12.07;6.15;;;;;;;;;;5113024;28;20512;-84
2023/09/18 09:57:23;;;;;;;14.25;5.88;;;;;;;;;;5114187;28;20043;-85
2023/09/18 10:00:26;;;;;;;13.07;5.15;;;;;;;;;;5105017;28;20055;-85
2023/09/18 10:03:04;;;;;;;14.85;5.50;;;;;;;;;;5113676;28;20032;-85
2023/09/18 10:05:43;;;;;;;17.20;6.57;;;;;;;;;;5113498;28;20036;-85
2023/09/18 10:08:19;;;;;;;12.60;5.40;;;;;;;;;;5096560;28;20055;-86
2023/09/18 10:10:55;;;;;;;14.57;5.75;;;;;;;;;;5097716;28;20490;-83
2023/09/18 10:13:49;;;;;;;16.73;6.35;;;;;;;;;;5096046;28;20044;-85
2023/09/18 10:16:27;;;;;;;15.38;5.82;;;;;;;;;;5095723;28;20058;-84
2023/09/18 10:19:26;;;;;;;13.02;5.78;;;;;;;;;;5096478;28;20063;-85
2023/09/18 10:22:13;;;;;;;17.30;6.15;;;;;;;;;;5076478;28;20041;-85
2023/09/18 10:24:49;;;;;;;20.40;7.68;;;;;;;;;;5080668;28;20032;-85
2023/09/18 10:27:21;;;;;;;17.95;6.00;;;;;;;;;;5091617;28;20040;-83
2023/09/18 10:29:54;;;;;;;20.50;6.25;;;;;;;;;;5093242;28;20062;-85
2023/09/18 10:32:28;;;;;;;13.70;5.85;;;;;;;;;;5095001;28;20051;-86
2023/09/18 10:35:00;;;;;;;19.33;6.57;;;;;;;;;;5093443;28;20486;-85
2023/09/18 10:37:32;;;;;;;16.90;6.38;;;;;;;;;;5093505;28;20048;-84
2023/09/18 10:40:04;;;;;;;11.23;6.10;;;;;;;;;;5091884;28;20067;-83
2023/09/18 10:42:42;;;;;;;17.48;6.55;;;;;;;;;;5080363;28;20391;-84
2023/09/18 10:45:15;;;;;;;16.08;5.78;;;;;;;;;;5094301;28;20051;-87
2023/09/18 10:47:49;;;;;;;10.80;4.40;;;;;;;;;;5094070;28;20040;-85
2023/09/18 10:50:27;;;;;;;12.38;5.47;;;;;;;;;;5094146;28;20047;-84
2023/09/18 10:52:59;;;;;;;15.15;5.60;;;;;;;;;;5092459;28;20048;-84
2023/09/18 10:55:33;;;;;;;13.82;5.28;;;;;;;;;;5092388;28;20493;-83
2023/09/18 10:58:04;;;;;;;16.25;5.75;;;;;;;;;;5092860;28;20044;-86
2023/09/18 11:00:36;;;;;;;26.60;6.50;;;;;;;;;;5094609;28;20490;-85
2023/09/18 11:03:13;;;;;;;17.58;6.50;;;;;;;;;;5094616;28;20055;-86
2023/09/18 11:05:52;;;;;;;16.25;5.88;;;;;;;;;;5093528;28;20040;-87
2023/09/18 11:08:42;;;;;;;12.85;5.93;;;;;;;;;;5093047;28;20493;-87
2023/09/18 11:11:19;;;;;;;12.80;6.18;;;;;;;;;;5092130;28;20078;-85
2023/09/18 11:13:54;;;;;;;26.08;13.10;;;;;;;;;;5074689;28;20423;-86
2023/09/18 11:16:30;;;;;;;24.65;11.65;;;;;;;;;;5092049;28;20154;-87
2023/09/18 11:19:05;;;;;;;14.05;5.97;;;;;;;;;;5092524;28;20466;-87
2023/09/18 11:21:37;;;;;;;15.95;6.25;;;;;;;;;;5092347;28;20052;-86
2023/09/18 11:24:22;;;;;;;16.05;6.38;;;;;;;;;;5092195;28;20154;-85
2023/09/18 11:26:57;;;;;;;14.20;6.50;;;;;;;;;;5091688;28;20040;-87
2023/09/18 11:29:31;;;;;;;11.13;4.90;;;;;;;;;;5090137;28;20059;-87
2023/09/18 11:32:03;;;;;;;10.77;5.40;;;;;;;;;;5074738;28;20409;-87
2023/09/18 11:34:38;;;;;;;8.27;4.30;;;;;;;;;;5091956;28;20477;-85
2023/09/18 11:37:21;;;;;;;8.82;4.72;;;;;;;;;;5090400;28;20063;-85
2023/09/18 11:39:52;;;;;;;12.10;5.93;;;;;;;;;;5090729;28;20417;-84
2023/09/18 11:42:26;;;;;;;12.88;5.70;;;;;;;;;;5093226;28;20040;-86
2023/09/18 11:45:01;;;;;;;10.43;5.32;;;;;;;;;;5093255;28;20036;-85
2023/09/18 11:47:42;;;;;;;14.00;4.88;;;;;;;;;;5093232;28;20040;-88
2023/09/18 11:50:17;;;;;;;13.27;4.82;;;;;;;;;;5092935;28;20106;-85
2023/09/18 11:52:47;;;;;;;10.88;4.32;;;;;;;;;;5092873;28;20051;-86
2023/09/18 11:55:19;;;;;;;11.23;5.15;;;;;;;;;;5092440;28;20056;-87
2023/09/18 11:57:58;;;;;;;11.05;4.93;;;;;;;;;;5092312;28;20044;-86
2023/09/18 12:00:29;;;;;;;11.93;4.55;;;;;;;;;;5093025;28;20053;-86
2023/09/18 12:03:27;;;;;;;10.38;4.18;;;;;;;;;;5089601;28;20052;-85
2023/09/18 12:06:05;;;;;;;10.80;4.80;;;;;;;;;;5090651;28;20402;-86
2023/09/18 12:08:38;;;;;;;9.55;4.07;;;;;;;;;;5092287;28;20398;-82
2023/09/18 12:11:16;;;;;;;7.45;3.95;;;;;;;;;;5092192;28;20397;-84
2023/09/18 12:13:53;;;;;;;9.75;3.00;;;;;;;;;;5092099;28;20040;-83
2023/09/18 12:16:24;;;;;;;4.55;2.47;;;;;;;;;;5092045;28;20383;-81
2023/09/18 12:18:56;;;;;;;6.72;2.90;;;;;;;;;;5092562;28;20048;-81
2023/09/18 12:21:29;;;;;;;6.05;2.80;;;;;;;;;;5092165;28;20052;-79
2023/09/18 12:24:04;;;;;;;5.20;2.65;;;;;;;;;;5091707;28;20048;-82
2023/09/18 12:26:38;;;;;;;5.95;2.78;;;;;;;;;;5092338;28;20044;-81
2023/09/18 12:29:13;;;;;;;5.03;2.72;;;;;;;;;;5091902;28;20040;-81
2023/09/18 12:31:47;;;;;;;8.23;2.80;;;;;;;;;;5092079;28;20493;-83
2023/09/18 12:34:23;;;;;;;5.63;2.55;;;;;;;;;;5091447;28;20157;-81
2023/09/18 12:36:54;;;;;;;5.10;2.25;;;;;;;;;;5091767;28;20066;-81
2023/09/18 12:39:24;;;;;;;4.18;2.60;;;;;;;;;;5091601;28;20055;-82
2023/09/18 12:42:01;;;;;;;7.43;2.70;;;;;;;;;;5090630;28;20106;-84
2023/09/18 12:44:31;;;;;;;5.47;2.50;;;;;;;;;;5089937;28;20058;-84
2023/09/18 12:47:03;;;;;;;6.18;2.42;;;;;;;;;;5091461;28;20059;-82
2023/09/18 12:49:39;;;;;;;3.53;2.30;;;;;;;;;;5091162;28;20056;-84
2023/09/18 12:52:10;;;;;;;5.93;2.55;;;;;;;;;;5091779;28;20043;-85
2023/09/18 12:54:49;;;;;;;6.63;3.33;;;;;;;;;;5091427;28;20036;-83
2023/09/18 12:57:20;;;;;;;4.97;2.90;;;;;;;;;;5091562;28;20043;-83
2023/09/18 12:59:52;;;;;;;4.20;2.20;;;;;;;;;;5091047;28;20055;-85
2023/09/18 13:02:24;;;;;;;6.15;2.33;;;;;;;;;;5091962;28;20410;-84
2023/09/18 13:04:58;;;;;;;5.57;2.42;;;;;;;;;;5091662;28;20036;-83
2023/09/18 13:07:32;;;;;;;8.15;2.60;;;;;;;;;;5090448;28;20044;-84
2023/09/18 13:10:10;;;;;;;6.75;3.10;;;;;;;;;;5091227;28;20405;-83
2023/09/18 13:12:53;;;;;;;5.18;2.58;;;;;;;;;;5090357;28;20040;-82
2023/09/18 13:15:32;;;;;;;5.22;2.30;;;;;;;;;;5091683;28;20044;-82
2023/09/18 13:18:11;;;;;;;8.13;2.22;;;;;;;;;;5091463;28;20051;-81
2023/09/18 13:20:45;;;;;;;8.63;2.40;;;;;;;;;;5091001;28;20056;-82
2023/09/18 13:23:17;;;;;;;6.38;2.42;;;;;;;;;;5091712;28;20045;-81
2023/09/18 13:25:58;;;;;;;4.75;2.03;;;;;;;;;;5090863;28;20051;-81
2023/09/18 13:28:30;;;;;;;5.97;2.65;;;;;;;;;;5089432;28;20051;-85
2023/09/18 13:31:08;;;;;;;6.13;2.92;;;;;;;;;;5090960;28;20055;-81
2023/09/18 13:33:44;;;;;;;5.18;2.22;;;;;;;;;;5091590;28;20039;-82
2023/09/18 13:36:21;;;;;;;10.10;2.63;;;;;;;;;;5089451;28;20513;-81
2023/09/18 13:38:51;;;;;;;4.35;2.33;;;;;;;;;;5114122;28;20466;-80
2023/09/18 13:41:32;;;;;;;5.55;2.50;;;;;;;;;;5118182;28;20047;-80
2023/09/18 13:44:04;;;;;;;6.35;2.25;;;;;;;;;;5119735;28;20051;-82
2023/09/18 13:46:38;;;;;;;6.32;2.38;;;;;;;;;;5123348;28;20054;-81
2023/09/18 13:49:09;;;;;;;4.93;2.40;;;;;;;;;;5124173;28;20035;-82
2023/09/18 13:51:47;;;;;;;8.25;2.67;;;;;;;;;;5103641;28;20062;-79
2023/09/18 13:54:19;;;;;;;4.55;2.20;;;;;;;;;;5123580;28;20055;-82
2023/09/18 13:56:49;;;;;;;4.03;1.92;;;;;;;;;;5121521;28;20410;-84
2023/09/18 13:59:19;;;;;;;5.55;2.10;;;;;;;;;;5115359;28;20055;-83
2023/09/18 14:01:51;;;;;;;7.47;2.28;;;;;;;;;;5116198;28;20520;-82
2023/09/18 14:04:48;;;;;;;5.50;2.28;;;;;;;;;;5117084;28;20056;-80
2023/09/18 14:07:18;;;;;;;5.18;2.22;;;;;;;;;;5116787;28;20048;-82
2023/09/18 14:09:49;;;;;;;4.63;2.10;;;;;;;;;;5116572;28;20039;-83
2023/09/18 14:12:22;;;;;;;5.53;2.38;;;;;;;;;;5116537;28;20052;-82
2023/09/18 14:14:55;;;;;;;6.03;2.28;;;;;;;;;;5116403;28;20044;-82
2023/09/18 14:17:26;;;;;;;4.35;2.30;;;;;;;;;;5116460;28;20047;-81
2023/09/18 14:19:59;;;;;;;6.80;2.65;;;;;;;;;;5116461;28;20043;-81
2023/09/18 14:22:29;;;;;;;9.13;2.15;;;;;;;;;;5116912;28;20043;-81
2023/09/18 14:25:04;;;;;;;7.43;2.03;;;;;;;;;;5097812;28;20047;-82
2023/09/18 14:27:39;;;;;;;4.28;2.83;;;;;;;;;;5093480;28;20040;-85
2023/09/18 14:30:10;;;;;;;5.72;2.15;;;;;;;;;;5095111;28;20051;-82
2023/09/18 14:32:40;;;;;;;4.18;2.08;;;;;;;;;;5093591;28;20482;-82
2023/09/18 14:35:11;;;;;;;4.63;2.25;;;;;;;;;;5095296;28;20051;-82
2023/09/18 14:37:43;;;;;;;11.63;2.50;;;;;;;;;;5094355;28;20370;-82
2023/09/18 14:40:17;;;;;;;5.30;2.40;;;;;;;;;;5099266;28;20040;-84
2023/09/18 14:42:50;;;;;;;4.35;2.00;;;;;;;;;;5093764;28;20043;-81
2023/09/18 14:45:20;;;;;;;9.07;1.88;;;;;;;;;;5094289;28;20044;-83
2023/09/18 14:47:51;;;;;;;5.72;2.50;;;;;;;;;;5093850;28;20497;-81
2023/09/18 14:50:21;;;;;;;5.03;1.98;;;;;;;;;;5093607;28;20048;-82
2023/09/18 14:52:52;;;;;;;7.72;2.53;;;;;;;;;;5094396;28;20387;-83
2023/09/18 14:55:23;;;;;;;4.65;2.17;;;;;;;;;;5093578;28;20048;-84
2023/09/18 14:57:55;;;;;;;4.85;2.25;;;;;;;;;;5095378;28;20155;-84
2023/09/18 15:00:26;;;;;;;4.45;2.42;;;;;;;;;;5094430;28;20067;-82
2023/09/18 15:02:59;;;;;;;6.53;2.05;;;;;;;;;;5092462;28;20130;-83
2023/09/18 15:05:30;;;;;;;4.60;1.90;;;;;;;;;;5092689;28;20048;-82
2023/09/18 15:08:02;;;;;;;3.83;2.08;;;;;;;;;;5094150;28;20055;-85
2023/09/18 15:10:32;;;;;;;2.83;1.65;;;;;;;;;;5094046;28;20044;-83
2023/09/18 15:13:03;;;;;;;3.08;1.73;;;;;;;;;;5093985;28;20043;-83
2023/09/18 15:15:33;;;;;;;5.72;2.00;;;;;;;;;;5092459;28;20050;-85
2023/09/18 15:18:04;;;;;;;3.20;1.60;;;;;;;;;;5092699;28;20048;-82